CheckWX is a tool to help pilots better visualize weather data.  It is not intended as a substitute for an official pre-flight weather briefing.

17:45:03 UTC

KDCU METAR
Pryor Field Regional Airport
Decatur, Alabama, USA
Current

52 mins ago

KDCU 201653Z AUTO 00000KT 10SM OVC016 18/14 A2996 RMK AO2 SLP142 T01830144
Observed
Oct-20 @ 16:53 UTC
Visibility
10 SM
Flight Rules
MVFR
Cloud Levels
  • Overcast at 1,600' AGL
Temperature
18°C / 64°F
Dewpoint
14°C / 57°F
Humidity
78%
Altimeter
29.96" Hg
Pressure
1014.52 hPa
Previous

2 hours ago

KDCU 201612Z AUTO 00000KT 10SM BKN010 OVC015 17/15 A2995 RMK AO2 CIG 006V011 T01720150
Observed
Oct-20 @ 16:12 UTC
Visibility
10 SM
Flight Rules
MVFR
Cloud Levels
  • Broken at 1,000' AGL
  • Overcast at 1,500' AGL
Temperature
17°C / 63°F
Dewpoint
15°C / 59°F
Humidity
88%
Altimeter
29.95" Hg
Pressure
1014.22 hPa
Previous

2 hours ago

KDCU 201553Z AUTO 13003KT 9SM BKN008 OVC012 17/15 A2995 RMK AO2 SLP139 T01720150
Observed
Oct-20 @ 15:53 UTC
Wind
  • 130° at 3 KTS
Visibility
9 SM
Flight Rules
IFR
Cloud Levels
  • Broken at 800' AGL
  • Overcast at 1,200' AGL
Temperature
17°C / 63°F
Dewpoint
15°C / 59°F
Humidity
88%
Altimeter
29.95" Hg
Pressure
1014.22 hPa